Time;durP1;ratioP1;P1;durP2;ratioP2;P2;SDS_P1;SDS_P2;PMS_P1;PMS_P2;Temp;Humidity;BMP_temperature;BMP_pressure;BME280_temperature;BME280_humidity;BME280_pressure;Samples;Min_cycle;Max_cycle;Signal;HPM_P1;HPM_P2
2022/06/26 00:02:02;;;;;;;7.43;4.60;;;;;;;20.50;66.00;100598.09;1739339;81;21015;-83
2022/06/26 00:04:31;;;;;;;6.40;4.30;;;;;;;20.45;65.94;100600.99;1765331;79;21138;-82
2022/06/26 00:07:00;;;;;;;7.33;4.97;;;;;;;20.42;66.00;100605.14;1764850;79;21097;-81
2022/06/26 00:09:28;;;;;;;6.47;4.90;;;;;;;20.40;66.23;100606.04;1767573;81;21046;-83
2022/06/26 00:11:56;;;;;;;7.20;5.27;;;;;;;20.38;66.54;100603.63;1739376;81;21081;-81
2022/06/26 00:14:24;;;;;;;8.40;4.87;;;;;;;20.36;66.80;100608.58;1760714;80;21132;-82
2022/06/26 00:16:53;;;;;;;7.23;5.00;;;;;;;20.32;67.00;100606.27;1757338;79;21109;-82
2022/06/26 00:19:23;;;;;;;6.90;5.13;;;;;;;20.28;67.12;100613.47;1765161;81;20964;-81
2022/06/26 00:21:51;;;;;;;6.05;5.05;;;;;;;20.27;67.19;100615.95;1758462;79;21014;-82
2022/06/26 00:24:18;;;;;;;8.50;4.83;;;;;;;20.24;67.15;100615.80;1765574;79;21106;-81
2022/06/26 00:26:44;;;;;;;8.67;5.00;;;;;;;20.21;67.03;100618.58;1762105;79;21550;-84
2022/06/26 00:29:11;;;;;;;6.57;5.10;;;;;;;20.18;67.04;100612.44;1762986;79;21051;-83
2022/06/26 00:31:37;;;;;;;7.77;4.97;;;;;;;20.17;67.14;100620.34;1764396;79;21046;-84
2022/06/26 00:34:04;;;;;;;6.67;4.80;;;;;;;20.14;67.25;100615.00;1765957;79;21391;-83
2022/06/26 00:36:32;;;;;;;8.70;5.10;;;;;;;20.14;67.48;100622.34;1765856;79;21644;-82
2022/06/26 00:38:59;;;;;;;7.50;5.00;;;;;;;20.12;67.59;100624.00;1765209;79;21546;-81
2022/06/26 00:41:26;;;;;;;6.57;4.90;;;;;;;20.10;67.56;100623.54;1764839;79;21066;-81
2022/06/26 00:43:52;;;;;;;6.30;5.00;;;;;;;20.05;67.57;100618.82;1762635;79;21054;-81
2022/06/26 00:46:24;;;;;;;9.53;5.30;;;;;;;20.02;67.63;100618.10;1765013;79;21419;-80
2022/06/26 00:48:49;;;;;;;6.30;4.90;;;;;;;19.97;67.72;100616.33;1762225;79;21116;-81
2022/06/26 00:51:16;;;;;;;6.70;5.10;;;;;;;19.95;67.62;100621.29;1756857;80;20992;-81
2022/06/26 00:53:42;;;;;;;9.10;4.87;;;;;;;19.93;67.43;100623.51;1765434;79;21126;-81
2022/06/26 00:56:09;;;;;;;8.20;5.10;;;;;;;19.90;67.26;100621.44;1766989;81;21208;-81
2022/06/26 00:58:36;;;;;;;5.70;4.57;;;;;;;19.88;67.05;100626.39;1760050;79;21034;-80
2022/06/26 01:01:02;;;;;;;8.03;5.30;;;;;;;19.84;66.91;100628.94;1781516;79;21124;-81
2022/06/26 01:03:29;;;;;;;7.27;5.43;;;;;;;19.77;66.85;100627.23;1779097;79;21428;-81
2022/06/26 01:05:57;;;;;;;7.33;5.37;;;;;;;19.73;66.88;100626.84;1781302;79;21001;-82
2022/06/26 01:08:24;;;;;;;9.20;5.60;;;;;;;19.67;66.86;100631.05;1781026;79;21986;-82
2022/06/26 01:10:50;;;;;;;7.23;5.17;;;;;;;19.63;66.77;100623.84;1755033;80;20996;-82
2022/06/26 01:13:18;;;;;;;5.70;5.07;;;;;;;19.57;66.49;100626.45;1754975;80;21233;-80
2022/06/26 01:15:45;;;;;;;6.57;4.90;;;;;;;19.52;66.28;100630.69;1762220;78;20897;-82
2022/06/26 01:18:12;;;;;;;6.33;4.97;;;;;;;19.50;66.16;100630.19;1737715;81;21086;-82
2022/06/26 01:20:40;;;;;;;8.50;5.03;;;;;;;19.48;66.14;100633.76;1735206;80;21036;-83
2022/06/26 01:23:08;;;;;;;7.60;5.73;;;;;;;19.48;66.06;100635.94;1759076;80;20935;-82
2022/06/26 01:25:42;;;;;;;8.00;5.37;;;;;;;19.47;65.92;100638.94;1768979;80;21059;-82
2022/06/26 01:28:09;;;;;;;6.30;5.33;;;;;;;19.52;65.76;100642.88;1764787;80;20952;-83
2022/06/26 01:30:35;;;;;;;7.87;5.73;;;;;;;19.49;65.74;100644.30;1768178;80;21034;-79
2022/06/26 01:33:02;;;;;;;7.33;5.23;;;;;;;19.49;65.81;100640.80;1767062;80;20990;-81
2022/06/26 01:35:30;;;;;;;6.47;5.20;;;;;;;19.48;65.79;100642.70;1765828;80;20975;-81
2022/06/26 01:38:17;;;;;;;10.23;5.33;;;;;;;19.50;65.72;100643.73;1783841;79;21140;-82
2022/06/26 01:40:45;;;;;;;7.13;5.07;;;;;;;19.49;65.50;100644.86;1773404;79;21086;-82
2022/06/26 01:43:22;;;;;;;6.87;5.10;;;;;;;19.48;65.25;100645.42;1754622;80;21117;-83
2022/06/26 01:45:53;;;;;;;7.27;5.70;;;;;;;19.49;65.06;100640.80;1772468;80;21534;-82
2022/06/26 01:48:28;;;;;;;7.50;5.87;;;;;;;19.49;64.75;100648.92;1753359;81;21487;-82
2022/06/26 01:50:53;;;;;;;6.73;5.03;;;;;;;19.47;64.56;100649.78;1743383;80;21406;-82
2022/06/26 01:53:20;;;;;;;8.03;5.10;;;;;;;19.47;64.37;100653.84;1748649;81;21012;-82
2022/06/26 01:55:48;;;;;;;7.70;5.33;;;;;;;19.47;64.25;100655.20;1740122;81;21046;-84
2022/06/26 01:58:18;;;;;;;8.03;5.27;;;;;;;19.45;64.11;100659.03;1743013;81;21038;-81
2022/06/26 02:00:46;;;;;;;6.80;5.33;;;;;;;19.44;64.02;100654.70;1751474;80;21018;-82
2022/06/26 02:03:16;;;;;;;9.77;6.30;;;;;;;19.44;64.05;100657.41;1748072;80;21116;-82
2022/06/26 02:05:45;;;;;;;7.53;5.62;;;;;;;19.44;64.03;100657.41;1750695;80;21086;-82
2022/06/26 02:08:14;;;;;;;7.50;5.53;;;;;;;19.45;64.03;100662.30;1747129;80;21104;-80
2022/06/26 02:13:42;;;;;;;6.93;5.03;;;;;;;19.47;63.96;100666.03;1751674;80;21018;-82
2022/06/26 02:16:18;;;;;;;6.23;5.30;;;;;;;19.47;63.99;100668.74;1752914;81;21090;-82
2022/06/26 02:18:48;;;;;;;6.60;5.60;;;;;;;19.47;64.06;100674.16;1752619;81;21553;-83
2022/06/26 02:21:19;;;;;;;9.17;5.20;;;;;;;19.45;64.08;100675.28;1742604;80;21036;-82
2022/06/26 02:23:48;;;;;;;6.33;5.17;;;;;;;19.48;64.11;100675.22;1723810;82;21027;-84
2022/06/26 02:26:17;;;;;;;8.03;5.17;;;;;;;19.49;64.08;100676.02;1742481;80;21517;-83
2022/06/26 02:28:46;;;;;;;7.07;5.20;;;;;;;19.53;64.04;100685.09;1751454;80;21237;-83
2022/06/26 02:31:13;;;;;;;6.27;5.40;;;;;;;19.54;63.97;100685.33;1751507;81;21557;-83
2022/06/26 02:33:40;;;;;;;7.07;5.20;;;;;;;19.56;63.87;100688.54;1753529;80;21714;-82
2022/06/26 02:36:07;;;;;;;7.93;5.20;;;;;;;19.55;63.85;100686.95;1751440;80;21106;-83
2022/06/26 02:38:37;;;;;;;6.83;5.60;;;;;;;19.58;63.91;100683.62;1752753;80;21059;-83
2022/06/26 02:41:04;;;;;;;6.03;4.93;;;;;;;19.60;64.04;100680.02;1748595;81;21002;-84
2022/06/26 02:43:31;;;;;;;6.83;5.37;;;;;;;19.61;64.15;100682.43;1753480;78;21016;-83
2022/06/26 02:46:00;;;;;;;8.63;5.53;;;;;;;19.63;64.34;100679.39;1759225;77;20967;-84
2022/06/26 02:48:28;;;;;;;7.33;5.10;;;;;;;19.67;64.53;100683.09;1752171;80;21051;-85
2022/06/26 02:50:54;;;;;;;6.40;5.00;;;;;;;19.73;64.60;100684.55;1751765;80;20960;-82
2022/06/26 02:53:24;;;;;;;7.00;4.80;;;;;;;19.77;64.58;100686.06;1749915;80;21616;-84
2022/06/26 02:55:50;;;;;;;6.03;5.07;;;;;;;19.81;64.62;100681.07;1749519;80;21090;-85
2022/06/26 02:58:17;;;;;;;6.37;5.43;;;;;;;19.87;64.58;100687.95;1755807;80;21059;-85
2022/06/26 03:00:46;;;;;;;7.37;5.57;;;;;;;19.94;64.24;100690.72;1751293;80;20984;-84
2022/06/26 03:03:15;;;;;;;6.83;5.30;;;;;;;19.96;64.11;100688.50;1753626;80;20973;-81
2022/06/26 03:05:42;;;;;;;6.97;5.37;;;;;;;20.00;64.09;100692.17;1748132;80;21534;-83
2022/06/26 03:08:10;;;;;;;7.83;5.50;;;;;;;20.04;64.00;100703.97;1751246;80;21055;-82
2022/06/26 03:10:41;;;;;;;6.80;5.25;;;;;;;20.07;63.91;100697.91;1752205;80;21075;-84
2022/06/26 03:13:08;;;;;;;5.90;5.20;;;;;;;20.05;64.08;100698.81;1751174;80;21026;-83
2022/06/26 03:15:36;;;;;;;6.57;5.23;;;;;;;20.06;64.28;100703.11;1725378;81;21019;-82
2022/06/26 03:18:03;;;;;;;6.37;5.00;;;;;;;20.09;64.09;100705.19;1751864;80;21027;-83
2022/06/26 03:20:30;;;;;;;7.97;5.60;;;;;;;20.13;64.06;100700.72;1747307;80;21491;-83
2022/06/26 03:22:56;;;;;;;5.80;5.20;;;;;;;20.18;63.91;100699.22;1749133;80;21063;-83
2022/06/26 03:25:23;;;;;;;7.40;6.13;;;;;;;20.25;63.76;100702.25;1752269;80;21586;-83
2022/06/26 03:27:50;;;;;;;5.83;5.23;;;;;;;20.33;63.62;100709.58;1750441;80;21013;-81
2022/06/26 03:30:19;;;;;;;7.83;5.83;;;;;;;20.40;63.21;100710.48;1751899;80;21746;-82
2022/06/26 03:32:48;;;;;;;7.87;5.33;;;;;;;20.41;62.83;100709.92;1750883;80;21079;-83
2022/06/26 03:35:15;;;;;;;6.67;5.00;;;;;;;20.42;62.80;100719.65;1750642;80;21024;-83
2022/06/26 03:37:43;;;;;;;7.50;5.83;;;;;;;20.48;62.67;100716.45;1721863;81;21090;-82
2022/06/26 03:40:12;;;;;;;8.70;5.40;;;;;;;20.57;62.47;100719.21;1751175;80;21185;-82
2022/06/26 03:42:39;;;;;;;5.77;5.17;;;;;;;20.67;62.34;100725.67;1749186;81;21112;-84
2022/06/26 03:45:08;;;;;;;5.93;4.90;;;;;;;20.73;62.07;100720.31;1721886;82;21107;-82
2022/06/26 03:47:37;;;;;;;;;;;;;;;20.78;61.68;100722.05;1734704;80;21494;-84
2022/06/26 03:50:09;;;;;;;7.03;4.80;;;;;;;20.79;61.49;100726.36;1753629;81;20213;-84
2022/06/26 03:52:38;;;;;;;7.80;5.60;;;;;;;20.87;61.55;100728.84;1728386;81;21593;-82
2022/06/26 03:55:07;;;;;;;6.10;5.40;;;;;;;21.00;61.39;100730.57;1754528;81;21141;-83
2022/06/26 03:57:34;;;;;;;6.57;5.40;;;;;;;21.12;61.35;100729.33;1748235;80;21074;-82
2022/06/26 04:00:01;;;;;;;7.03;5.00;;;;;;;21.27;61.01;100725.30;1765605;79;21467;-83
2022/06/26 04:02:45;;;;;;;6.17;5.00;;;;;;;21.37;60.81;100724.97;1769730;80;21124;-82
2022/06/26 04:05:15;;;;;;;5.90;4.97;;;;;;;21.49;60.50;100729.17;1771291;80;21505;-83
2022/06/26 04:07:41;;;;;;;7.03;5.70;;;;;;;21.62;60.10;100726.00;1787531;79;22175;-75
2022/06/26 04:10:22;;;;;;;5.80;5.20;;;;;;;21.69;59.80;100722.20;1750099;80;21044;-77
2022/06/26 04:12:50;;;;;;;7.73;5.00;;;;;;;21.72;59.42;100717.47;1703555;82;21043;-82
2022/06/26 04:15:17;;;;;;;6.27;4.53;;;;;;;21.78;59.45;100724.86;1672766;82;21103;-79
2022/06/26 04:17:44;;;;;;;5.53;3.93;;;;;;;21.88;59.38;100729.94;1664850;85;21064;-80
2022/06/26 04:20:13;;;;;;;5.73;4.60;;;;;;;21.96;58.83;100727.72;1669217;84;21637;-81
2022/06/26 04:22:40;;;;;;;6.60;4.70;;;;;;;22.09;58.49;100722.37;1726979;82;21010;-82
2022/06/26 04:25:10;;;;;;;6.30;4.63;;;;;;;22.21;58.00;100720.55;1687724;82;21905;-77
2022/06/26 04:27:37;;;;;;;7.03;4.70;;;;;;;22.26;57.28;100714.11;1675358;84;21074;-82
2022/06/26 04:30:07;;;;;;;7.00;4.77;;;;;;;22.31;57.54;100712.56;1706769;82;21002;-82
2022/06/26 04:32:34;;;;;;;7.37;4.73;;;;;;;22.40;57.73;100710.54;1689060;83;21869;-84
2022/06/26 04:35:02;;;;;;;6.17;4.53;;;;;;;22.48;57.39;100706.17;1702895;82;21070;-84
2022/06/26 04:37:29;;;;;;;5.93;5.03;;;;;;;22.56;57.35;100709.37;1677868;85;21109;-84
2022/06/26 04:40:07;;;;;;;8.57;4.83;;;;;;;22.63;57.31;100706.90;1653214;85;21113;-87
2022/06/26 04:42:35;;;;;;;6.30;4.83;;;;;;;22.73;57.14;100705.69;1695231;82;20968;-85
2022/06/26 04:45:07;;;;;;;7.77;4.70;;;;;;;22.84;56.82;100705.52;1697117;82;21873;-81
2022/06/26 04:47:42;;;;;;;5.47;4.23;;;;;;;22.95;56.40;100711.35;1677935;85;21439;-82
2022/06/26 04:50:36;;;;;;;;;;;;;;;23.05;56.24;100706.83;1705750;84;21066;-82
2022/06/26 04:53:04;;;;;;;5.50;4.17;;;;;;;23.13;55.59;100710.05;1706472;83;20430;-84
2022/06/26 04:55:36;;;;;;;4.83;3.90;;;;;;;23.21;55.45;100713.00;1693090;84;21541;-84
2022/06/26 04:58:03;;;;;;;7.97;4.30;;;;;;;23.31;55.13;100717.44;1706715;84;21520;-85
2022/06/26 05:00:29;;;;;;;5.87;3.90;;;;;;;23.39;54.56;100719.25;1706691;84;20949;-82
2022/06/26 05:03:11;;;;;;;6.40;4.30;;;;;;;23.46;54.50;100721.98;1692377;84;20980;-83
2022/06/26 05:05:51;;;;;;;7.20;4.00;;;;;;;23.51;54.50;100727.22;1634954;85;21099;-83
2022/06/26 05:08:20;;;;;;;5.47;4.10;;;;;;;23.56;54.13;100726.98;1702413;84;20985;-82
2022/06/26 05:10:48;;;;;;;6.70;4.00;;;;;;;23.62;53.71;100732.44;1706393;84;21142;-82
2022/06/26 05:13:15;;;;;;;5.97;3.87;;;;;;;23.64;53.90;100732.33;1680579;84;21059;-82
2022/06/26 05:15:47;;;;;;;5.13;4.07;;;;;;;23.70;54.13;100730.78;1689705;82;21050;-83
2022/06/26 05:18:14;;;;;;;4.77;3.90;;;;;;;23.79;53.86;100725.44;1689603;82;21133;-83
2022/06/26 05:20:42;;;;;;;5.53;4.40;;;;;;;23.91;53.64;100725.19;1688149;82;21596;-81
2022/06/26 05:23:11;;;;;;;5.20;4.20;;;;;;;24.01;53.13;100728.81;1688362;82;21154;-83
2022/06/26 05:25:41;;;;;;;;;;;;;;;24.09;53.02;100732.79;1690266;82;21621;-84
2022/06/26 05:28:07;;;;;;;6.30;4.20;;;;;;;24.18;52.63;100735.94;1689225;82;20173;-84
2022/06/26 05:30:36;;;;;;;6.43;4.43;;;;;;;24.24;52.35;100735.36;1701728;82;21067;-84
2022/06/26 05:33:05;;;;;;;7.58;4.30;;;;;;;24.33;52.29;100734.66;1705550;83;20979;-83
2022/06/26 05:35:32;;;;;;;7.20;4.47;;;;;;;24.44;51.89;100742.39;1695524;83;21172;-83
2022/06/26 05:37:59;;;;;;;5.23;4.27;;;;;;;24.49;51.26;100733.39;1709548;82;21049;-80
2022/06/26 05:40:26;;;;;;;6.37;4.33;;;;;;;24.55;51.02;100736.10;1683540;82;21062;-85
2022/06/26 05:42:55;;;;;;;5.87;4.10;;;;;;;24.64;50.90;100731.84;1653258;85;21034;-84
2022/06/26 05:45:23;;;;;;;5.00;3.97;;;;;;;24.75;50.93;100730.79;1687734;82;21059;-85
2022/06/26 05:47:57;;;;;;;7.70;4.43;;;;;;;24.86;50.93;100726.40;1657706;83;21194;-82
2022/06/26 05:50:26;;;;;;;5.43;4.00;;;;;;;24.99;50.43;100728.50;1691753;82;21461;-84
2022/06/26 05:52:57;;;;;;;;;;;;;;;25.05;50.01;100727.09;1690586;82;21066;-83
2022/06/26 05:55:26;;;;;;;4.57;3.60;;;;;;;25.14;50.23;100733.23;1690670;82;20197;-84
2022/06/26 05:58:03;;;;;;;5.10;4.30;;;;;;;25.20;49.46;100729.64;1689192;82;21160;-80
2022/06/26 06:00:43;;;;;;;6.03;4.23;;;;;;;25.32;49.34;100726.83;1688132;82;21111;-83
2022/06/26 06:03:10;;;;;;;6.63;4.30;;;;;;;25.41;49.19;100719.83;1684097;82;21051;-82
2022/06/26 06:05:38;;;;;;;6.50;4.20;;;;;;;25.47;48.67;100724.67;1688574;82;21027;-81
2022/06/26 06:08:06;;;;;;;4.87;3.83;;;;;;;25.54;48.93;100727.37;1689287;82;21054;-83
2022/06/26 06:10:33;;;;;;;4.57;3.70;;;;;;;25.61;48.39;100731.06;1685198;82;21030;-84
2022/06/26 06:13:01;;;;;;;4.83;3.83;;;;;;;25.67;48.60;100732.95;1665226;83;21208;-83
2022/06/26 06:15:28;;;;;;;6.17;3.73;;;;;;;25.75;48.13;100738.80;1677122;84;20983;-84
2022/06/26 06:17:57;;;;;;;5.40;3.73;;;;;;;25.85;47.76;100733.39;1706665;84;20969;-81
2022/06/26 06:20:24;;;;;;;7.07;3.53;;;;;;;25.92;47.41;100732.17;1706720;84;21074;-83
2022/06/26 06:22:55;;;;;;;4.50;3.50;;;;;;;25.98;47.48;100729.38;1706502;84;21071;-82
2022/06/26 06:25:22;;;;;;;4.37;2.90;;;;;;;26.08;46.31;100732.14;1665340;84;21508;-82
2022/06/26 06:27:50;;;;;;;5.13;3.73;;;;;;;26.19;46.40;100731.78;1706682;84;20955;-82
2022/06/26 06:30:19;;;;;;;4.13;3.23;;;;;;;26.30;45.94;100733.40;1706440;83;21015;-82
2022/06/26 06:32:47;;;;;;;4.60;3.40;;;;;;;26.43;46.43;100736.22;1699897;84;21025;-82
2022/06/26 06:35:33;;;;;;;4.20;3.30;;;;;;;26.59;46.14;100738.34;1678012;85;21118;-82
2022/06/26 06:38:00;;;;;;;5.23;3.60;;;;;;;26.69;45.50;100742.44;1678107;85;21125;-81
2022/06/26 06:40:30;;;;;;;6.10;4.00;;;;;;;26.74;46.03;100739.39;1677912;85;21458;-82
2022/06/26 06:42:58;;;;;;;6.07;3.33;;;;;;;26.79;45.70;100741.84;1700210;82;21110;-79
2022/06/26 06:45:28;;;;;;;5.03;3.43;;;;;;;26.84;45.63;100738.80;1707053;84;21454;-83
2022/06/26 06:47:59;;;;;;;5.30;3.43;;;;;;;26.88;45.38;100741.05;1706565;84;20979;-82
2022/06/26 06:50:40;;;;;;;;;;;;;;;26.97;45.11;100743.54;1703728;84;22010;-84
2022/06/26 06:53:07;;;;;;;4.20;3.37;;;;;;;27.08;45.07;100740.43;1678348;85;20448;-82
2022/06/26 06:55:35;;;;;;;4.67;3.10;;;;;;;27.17;44.79;100742.95;1678758;85;21027;-81
2022/06/26 06:58:02;;;;;;;5.17;3.17;;;;;;;27.28;44.39;100740.41;1678303;84;21055;-78
2022/06/26 07:00:31;;;;;;;4.63;3.10;;;;;;;27.36;44.05;100753.85;1694222;84;20983;-81
2022/06/26 07:03:04;;;;;;;3.87;3.00;;;;;;;27.43;44.07;100746.91;1710004;84;21410;-81
2022/06/26 07:05:32;;;;;;;3.83;2.40;;;;;;;27.53;44.42;100747.66;1708406;84;21023;-78
2022/06/26 07:08:00;;;;;;;3.23;2.60;;;;;;;27.62;41.72;100735.85;1680284;84;21039;-78
2022/06/26 07:10:26;;;;;;;5.63;2.47;;;;;;;27.72;40.35;100748.94;1705481;84;20985;-80
2022/06/26 07:12:59;;;;;;;3.13;2.50;;;;;;;27.79;40.83;100744.17;1705216;82;21082;-80
2022/06/26 07:15:25;;;;;;;;;;;;;;;27.86;39.99;100740.73;1709457;84;21130;-79
2022/06/26 07:17:52;;;;;;;5.40;2.80;;;;;;;27.92;39.27;100746.13;1699196;82;20192;-80
2022/06/26 07:20:19;;;;;;;5.63;2.37;;;;;;;28.02;39.51;100743.52;1694630;82;21653;-79
2022/06/26 07:22:47;;;;;;;5.07;2.43;;;;;;;28.15;38.70;100750.95;1686957;82;21144;-79
2022/06/26 07:25:19;;;;;;;3.43;2.30;;;;;;;28.20;38.85;100742.41;1682219;82;21521;-77
2022/06/26 07:27:50;;;;;;;4.03;2.43;;;;;;;28.27;39.37;100744.45;1685161;82;21214;-77
2022/06/26 07:30:19;;;;;;;4.33;2.33;;;;;;;28.35;37.29;100742.58;1697235;82;21106;-84
2022/06/26 07:32:55;;;;;;;3.67;2.30;;;;;;;28.38;37.74;100740.46;1695772;82;21096;-77
2022/06/26 07:35:22;;;;;;;3.03;2.10;;;;;;;28.43;37.88;100736.02;1686507;82;21544;-79
2022/06/26 07:37:50;;;;;;;5.10;2.10;;;;;;;28.51;37.64;100739.87;1699624;82;21031;-77
2022/06/26 07:40:17;;;;;;;2.83;2.00;;;;;;;28.60;36.31;100731.34;1705733;84;21260;-77
2022/06/26 07:42:44;;;;;;;4.73;2.10;;;;;;;28.61;35.89;100726.05;1691456;82;21097;-78
2022/06/26 07:45:11;;;;;;;4.37;2.37;;;;;;;28.58;36.60;100735.63;1682394;82;21065;-77
2022/06/26 07:47:48;;;;;;;3.80;2.27;;;;;;;28.51;36.83;100734.95;1701293;82;21652;-77
2022/06/26 07:50:18;;;;;;;6.80;2.30;;;;;;;28.40;36.98;100729.34;1705911;84;21050;-79
2022/06/26 07:52:48;;;;;;;3.07;2.20;;;;;;;28.29;37.54;100742.89;1705413;84;21157;-80
2022/06/26 07:55:16;;;;;;;2.90;2.10;;;;;;;28.23;37.16;100740.84;1682915;84;21098;-82
2022/06/26 07:57:43;;;;;;;3.80;2.13;;;;;;;28.24;37.55;100746.57;1677196;85;21197;-79
2022/06/26 08:00:12;;;;;;;3.30;2.10;;;;;;;28.28;37.88;100752.89;1677332;85;21077;-79
2022/06/26 08:02:42;;;;;;;3.87;2.30;;;;;;;28.27;37.29;100749.36;1678236;84;21122;-81
2022/06/26 08:05:09;;;;;;;2.53;2.13;;;;;;;28.28;37.52;100744.66;1677921;85;21613;-76
2022/06/26 08:07:35;;;;;;;4.63;2.43;;;;;;;28.33;38.16;100751.18;1677446;85;21611;-79
2022/06/26 08:10:02;;;;;;;4.73;2.43;;;;;;;28.40;37.90;100749.95;1689842;82;21065;-76
2022/06/26 08:12:29;;;;;;;5.10;2.57;;;;;;;28.50;36.87;100749.28;1690099;82;21105;-77
2022/06/26 08:14:55;;;;;;;3.87;2.60;;;;;;;28.72;36.49;100746.18;1687093;82;21631;-77
2022/06/26 08:17:22;;;;;;;2.90;2.37;;;;;;;28.93;36.10;100733.27;1684158;82;21284;-76
2022/06/26 08:19:48;;;;;;;3.57;2.20;;;;;;;29.11;35.58;100738.95;1688076;82;20963;-78
2022/06/26 08:22:15;;;;;;;4.73;2.37;;;;;;;29.13;34.81;100740.75;1683584;82;21448;-77
2022/06/26 08:24:41;;;;;;;3.33;2.10;;;;;;;28.96;35.12;100738.00;1686592;82;21085;-80
2022/06/26 08:27:09;;;;;;;3.53;2.23;;;;;;;28.86;36.05;100733.19;1691585;82;21142;-77
2022/06/26 08:29:37;;;;;;;4.57;2.20;;;;;;;28.83;36.37;100729.82;1691185;82;21156;-78
2022/06/26 08:32:05;;;;;;;3.07;2.27;;;;;;;28.75;36.10;100733.06;1698924;82;21106;-77
2022/06/26 08:34:31;;;;;;;3.77;2.17;;;;;;;28.63;36.64;100738.02;1695734;82;21034;-78
2022/06/26 08:36:58;;;;;;;5.00;2.67;;;;;;;28.53;36.68;100743.62;1689101;82;21069;-79
2022/06/26 08:39:25;;;;;;;3.40;2.20;;;;;;;28.45;37.14;100746.06;1695223;82;22308;-78
2022/06/26 08:41:54;;;;;;;5.70;2.53;;;;;;;28.42;37.20;100749.56;1693242;82;21825;-79
2022/06/26 08:44:24;;;;;;;3.90;2.12;;;;;;;28.46;36.96;100744.34;1685362;82;21092;-78
2022/06/26 08:46:51;;;;;;;4.20;2.30;;;;;;;28.60;36.56;100738.21;1697178;82;21592;-76
2022/06/26 08:49:20;;;;;;;4.00;2.40;;;;;;;28.71;35.96;100739.70;1705937;84;21043;-79
2022/06/26 08:51:48;;;;;;;4.63;2.30;;;;;;;28.70;35.56;100743.62;1705718;84;21517;-78
2022/06/26 08:54:16;;;;;;;4.33;2.20;;;;;;;28.67;35.73;100743.78;1704967;84;21478;-79
2022/06/26 08:56:45;;;;;;;4.77;2.60;;;;;;;28.67;35.73;100745.75;1698568;82;21023;-77
2022/06/26 08:59:15;;;;;;;3.03;2.20;;;;;;;28.73;35.71;100742.88;1684093;82;21597;-80
2022/06/26 09:01:42;;;;;;;2.70;2.10;;;;;;;28.88;36.08;100744.59;1688874;82;21089;-77
2022/06/26 09:04:10;;;;;;;3.93;2.00;;;;;;;28.98;35.61;100734.28;1685033;82;21078;-79
2022/06/26 09:06:41;;;;;;;4.27;2.57;;;;;;;29.06;35.47;100740.69;1681908;82;21684;-77
2022/06/26 09:09:17;;;;;;;2.60;2.00;;;;;;;29.13;35.13;100735.84;1698027;82;21003;-79
2022/06/26 09:11:46;;;;;;;3.73;2.37;;;;;;;29.30;35.80;100731.66;1699087;82;21078;-79
2022/06/26 09:14:13;;;;;;;6.00;2.07;;;;;;;29.49;34.75;100732.80;1683108;82;21089;-78
2022/06/26 09:16:43;;;;;;;3.87;2.00;;;;;;;29.55;35.20;100729.08;1681671;82;21092;-79
2022/06/26 09:19:16;;;;;;;4.43;2.37;;;;;;;29.54;34.13;100740.68;1686095;82;21461;-79
2022/06/26 09:21:43;;;;;;;3.03;1.90;;;;;;;29.41;34.09;100742.94;1684691;82;21074;-77
2022/06/26 09:24:13;;;;;;;3.90;2.00;;;;;;;29.33;34.90;100730.90;1685941;82;21114;-76
2022/06/26 09:26:40;;;;;;;2.70;2.17;;;;;;;29.34;35.50;100721.47;1681834;82;21033;-79
2022/06/26 09:29:15;;;;;;;3.07;2.10;;;;;;;29.30;35.92;100731.66;1689215;82;21017;-77
2022/06/26 09:31:42;;;;;;;3.77;2.43;;;;;;;29.31;34.95;100723.59;1684044;82;21172;-77
2022/06/26 09:34:24;;;;;;;4.93;2.50;;;;;;;29.28;33.84;100730.64;1688378;82;21101;-79
2022/06/26 09:36:57;;;;;;;4.80;2.47;;;;;;;29.31;35.12;100729.89;1677471;85;21466;-79
2022/06/26 09:39:25;;;;;;;3.03;2.00;;;;;;;29.51;34.49;100724.93;1676899;85;21122;-76
2022/06/26 09:41:52;;;;;;;4.47;2.20;;;;;;;29.67;34.56;100730.97;1697361;82;21057;-78
2022/06/26 09:44:20;;;;;;;4.27;2.20;;;;;;;29.79;35.23;100733.23;1682724;82;21261;-78
2022/06/26 09:46:46;;;;;;;3.53;2.30;;;;;;;30.02;36.30;100737.88;1690552;82;21459;-75
2022/06/26 09:49:13;;;;;;;3.80;2.50;;;;;;;30.34;35.43;100722.92;1680214;84;21032;-76
2022/06/26 09:51:40;;;;;;;3.83;2.40;;;;;;;30.64;33.90;100719.66;1696418;82;21373;-78
2022/06/26 09:54:08;;;;;;;3.20;2.50;;;;;;;30.74;34.61;100719.69;1707497;84;21078;-78
2022/06/26 09:56:34;;;;;;;3.70;2.20;;;;;;;30.77;33.92;100722.28;1699231;82;21217;-76
2022/06/26 09:59:02;;;;;;;4.40;2.30;;;;;;;30.61;34.63;100723.39;1679642;82;20991;-76
2022/06/26 10:07:02;;;;;;;3.43;2.20;;;;;;;29.90;35.90;100734.07;1685901;82;21049;-75
2022/06/26 10:09:30;;;;;;;3.83;2.50;;;;;;;29.67;35.07;100732.34;1690581;82;21082;-76
2022/06/26 10:11:58;;;;;;;4.93;2.40;;;;;;;29.53;36.23;100736.95;1658576;82;21023;-78
2022/06/26 10:14:35;;;;;;;4.43;2.53;;;;;;;29.59;36.24;100740.34;1681627;82;21061;-79
2022/06/26 10:17:28;;;;;;;4.07;2.50;;;;;;;29.72;35.61;100746.36;1686024;82;21062;-77
2022/06/26 10:20:02;;;;;;;2.83;2.20;;;;;;;29.86;36.06;100744.28;1689306;82;21050;-78
2022/06/26 10:22:41;;;;;;;3.50;2.33;;;;;;;29.88;34.80;100743.32;1681506;82;21197;-77
2022/06/26 10:25:08;;;;;;;2.60;1.97;;;;;;;29.90;34.73;100740.95;1680857;82;21037;-78
2022/06/26 10:27:37;;;;;;;3.00;2.20;;;;;;;29.86;35.28;100744.28;1686077;82;21112;-79
2022/06/26 10:30:16;;;;;;;3.10;1.80;;;;;;;29.81;34.75;100748.20;1683802;82;21062;-78
2022/06/26 10:32:45;;;;;;;3.83;2.40;;;;;;;29.85;34.98;100741.33;1683697;82;21588;-79
2022/06/26 10:35:13;;;;;;;4.33;2.20;;;;;;;29.93;35.38;100741.56;1680368;82;22105;-77
2022/06/26 10:37:48;;;;;;;3.17;2.10;;;;;;;30.07;35.31;100740.25;1682041;82;21098;-80
2022/06/26 10:43:13;;;;;;;4.47;2.10;;;;;;;30.54;34.72;100737.16;1687546;82;21133;-78
2022/06/26 10:45:40;;;;;;;4.93;2.13;;;;;;;30.84;33.36;100731.95;1683014;82;21738;-77
2022/06/26 10:48:19;;;;;;;4.70;2.40;;;;;;;30.96;33.38;100740.42;1686816;82;21103;-77
2022/06/26 10:51:01;;;;;;;3.43;1.90;;;;;;;31.08;32.91;100729.80;1632788;83;21106;-75
2022/06/26 10:53:39;;;;;;;2.83;1.70;;;;;;;31.08;33.90;100733.16;1666888;84;21119;-79
2022/06/26 10:56:07;;;;;;;2.95;1.87;;;;;;;31.18;33.40;100737.89;1686532;82;21054;-78
2022/06/26 10:58:41;;;;;;;2.20;1.70;;;;;;;31.24;32.97;100742.43;1692813;82;21046;-79
2022/06/26 11:01:10;;;;;;;2.65;2.15;;;;;;;31.29;32.53;100740.08;1692864;82;21271;-77
2022/06/26 11:03:37;;;;;;;4.42;2.00;;;;;;;31.38;32.32;100743.05;1693168;82;21423;-78
2022/06/26 11:06:11;;;;;;;2.83;1.90;;;;;;;31.42;32.40;100738.31;1709056;82;21074;-79
2022/06/26 11:08:41;;;;;;;2.60;1.85;;;;;;;31.46;32.63;100737.14;1590204;81;10000160;-83
2022/06/26 11:11:20;;;;;;;3.33;2.33;;;;;;;31.49;32.83;100738.30;1661545;84;21919;-82
2022/06/26 11:13:54;;;;;;;2.67;1.90;;;;;;;31.56;32.73;100725.08;1704195;82;21024;-83
2022/06/26 11:16:55;;;;;;;3.20;2.10;;;;;;;31.66;31.28;100727.06;1698354;84;21077;-81
2022/06/26 11:19:26;;;;;;;4.60;1.97;;;;;;;31.61;31.04;100724.69;1688088;84;21404;-80
2022/06/26 11:22:06;;;;;;;3.58;1.75;;;;;;;31.43;31.75;100727.48;1704113;82;21012;-80
2022/06/26 11:24:33;;;;;;;2.72;1.87;;;;;;;31.34;31.85;100731.23;1688835;82;21472;-84
2022/06/26 11:26:59;;;;;;;2.98;1.80;;;;;;;31.45;31.39;100730.62;1698145;82;21069;-83
2022/06/26 11:29:26;;;;;;;2.85;1.80;;;;;;;31.58;31.24;100728.25;1687037;82;21061;-82
2022/06/26 11:31:56;;;;;;;3.17;1.70;;;;;;;31.55;31.12;100720.16;1690594;82;21044;-82
2022/06/26 11:34:24;;;;;;;2.87;2.00;;;;;;;31.44;31.44;100724.91;1535553;84;10000362;-80
2022/06/26 11:36:53;;;;;;;2.40;1.82;;;;;;;31.13;31.67;100725.88;1704466;82;21042;-86
2022/06/26 11:39:20;;;;;;;2.62;2.20;;;;;;;31.02;32.96;100723.09;1702213;83;21015;-83
2022/06/26 11:41:47;;;;;;;4.03;2.00;;;;;;;31.10;32.90;100724.47;1681233;84;21042;-82
2022/06/26 11:44:14;;;;;;;2.12;1.70;;;;;;;31.17;32.60;100734.16;1704581;84;21099;-83
2022/06/26 11:46:41;;;;;;;3.08;1.87;;;;;;;31.23;32.28;100722.33;1684329;84;21712;-82
2022/06/26 11:49:11;;;;;;;4.37;1.90;;;;;;;31.33;31.71;100722.16;1691998;84;21515;-83